Flight Track Log - Related Links

Times and Time Zones

All times are in EDT time to prevent confusion due to time zone crossing. See the EJA396 flight status page for this flight to view local times or setup timezone preferences in your user account.

Time Position Orientation Groundspeed Altitude Reporting Facility
EDT Latitude Longitude Course Direction KTS MPH feet Rate Location/Type
Wed 05:15:20 PM 44.9000 -93.2333 North 181 208 3,300  Level Minneapolis TRACON
Wed 05:16:13 PM 44.9403 -93.2275 North 171 197 6,500 4,017 Climbing Minneapolis Center
Wed 05:17:15 PM 45.0056 -93.1767 29° Northeast 265 305 11,000 3,242 Climbing Minneapolis Center
Wed 05:18:17 PM 44.9622 -93.0739 121° Southeast 317 365 13,200 2,516 Climbing Minneapolis Center
Wed 05:19:19 PM 44.9147 -92.9525 119° Southeast 345 397 16,200 2,661 Climbing Minneapolis Center
Wed 05:20:21 PM 44.8714 -92.8306 117° Southeast 349 402 18,700 2,177 Climbing Minneapolis Center
Wed 05:21:23 PM 44.8264 -92.7047 117° Southeast 357 411 20,700 1,935 Climbing Minneapolis Center
Wed 05:22:25 PM 44.7775 -92.5708 117° Southeast 379 436 22,700 1,935 Climbing Minneapolis Center
Wed 05:23:27 PM 44.7281 -92.4319 117° Southeast 393 452 24,700 1,984 Climbing Minneapolis Center
Wed 05:24:29 PM 44.6672 -92.2672 117° Southeast 397 457 26,800 1,742 Climbing Minneapolis Center
Wed 05:25:31 PM 44.6192 -92.1322 117° Southeast 392 451 28,300 1,452 Climbing Minneapolis Center
Wed 05:26:33 PM 44.5711 -92.0000 117° Southeast 385 443 29,800 1,452 Climbing Minneapolis Center
Wed 05:27:35 PM 44.5228 -91.8686 117° Southeast 381 438 31,300 1,403 Climbing Minneapolis Center
Wed 05:28:37 PM 44.4719 -91.7303 117° Southeast 396 456 32,700 1,161 Climbing Minneapolis Center
Wed 05:29:39 PM 44.4186 -91.5861 117° Southeast 408 470 33,700 1,065 Climbing Minneapolis Center
Wed 05:30:41 PM 44.3497 -91.4064 118° Southeast 424 488 34,900 1,065 Climbing Minneapolis Center
Wed 05:31:43 PM 44.2939 -91.2531 117° Southeast 436 502 35,900 968 Climbing Minneapolis Center
Wed 05:32:45 PM 44.2364 -91.0997 118° Southeast 443 510 36,900 968 Climbing Minneapolis Center
Wed 05:33:47 PM 44.1786 -90.9475 118° Southeast 445 512 37,900 968 Climbing Minneapolis Center
Wed 05:34:49 PM 44.1239 -90.8028 118° Southeast 438 504 38,900 968 Climbing Minneapolis Center
Wed 05:35:51 PM 44.0772 -90.6497 113° Southeast 435 501 39,900 823 Climbing Minneapolis Center
Wed 05:36:53 PM 44.0394 -90.4536 105° East 438 504 40,600 532 Climbing Minneapolis Center
Wed 05:37:55 PM 44.0067 -90.2881 105° East 442 509 41,000 194 Climbing Minneapolis Center
Wed 05:38:57 PM 43.9700 -90.1206 107° East 449 517 41,000  Level Minneapolis Center
Wed 05:39:59 PM 43.9358 -89.9475 105° East 460 529 41,000  Level Minneapolis Center
Wed 05:41:01 PM 43.9003 -89.7792 106° East 458 527 41,000  Level Minneapolis Center
Wed 05:42:03 PM 43.8589 -89.5814 106° East 458 527 41,000  Level Minneapolis Center
Wed 05:43:05 PM 43.8244 -89.4147 106° East 453 521 41,000  Level Minneapolis Center
Wed 05:44:07 PM 43.7883 -89.2500 107° East 448 516 41,000  Level Minneapolis Center
Wed 05:45:09 PM 43.7539 -89.0886 106° East 440 506 41,000  Level Minneapolis Center
Wed 05:46:10 PM 43.7264 -88.9578 106° East 428 493 41,000  Level Minneapolis Center
Wed 05:47:13 PM 43.6883 -88.7811 107° East 413 475 41,000  Level Minneapolis Center
Wed 05:48:14 PM 43.6497 -88.6033 107° East 412 474 41,000  Level Minneapolis Center
Wed 05:49:16 PM 43.6147 -88.4500 107° East 410 472 41,000  Level Minneapolis Center
Wed 05:49:40 PM 43.6039 -88.3969 106° East 420 483 41,000  Level Chicago Center
Wed 05:50:42 PM 43.5672 -88.2397 108° East 424 488 41,000  Level Chicago Center
Wed 05:51:44 PM 43.5314 -88.0806 107° East 431 496 41,000  Level Chicago Center
Wed 05:52:46 PM 43.4947 -87.9219 108° East 433 498 41,000  Level Chicago Center
Wed 05:53:48 PM 43.4583 -87.7636 108° East 434 499 41,000  Level Chicago Center
Wed 05:54:50 PM 43.4158 -87.5781 107° East 434 499 41,000  Level Chicago Center
Wed 05:55:52 PM 43.3783 -87.4192 108° East 436 502 41,000  Level Chicago Center
Wed 05:56:55 PM 43.3436 -87.2742 108° East 437 503 41,000  Level Chicago Center
Wed 05:57:57 PM 43.2992 -87.0828 108° East 439 505 41,000  Level Chicago Center
Wed 05:58:59 PM 43.2628 -86.9236 107° East 439 505 41,000  Level Chicago Center
Wed 06:00:01 PM 43.2250 -86.7661 108° East 436 502 41,000  Level Chicago Center
Wed 06:01:03 PM 43.1869 -86.6097 108° East 435 501 41,000  Level Chicago Center
Wed 06:02:06 PM 43.1503 -86.4594 108° East 421 484 41,000  Level Chicago Center
Wed 06:03:08 PM 43.1139 -86.3086 108° East 420 483 41,000  Level Chicago Center
Wed 06:04:10 PM 43.0681 -86.1253 109° East 426 490 41,000  Level Chicago Center
Wed 06:05:12 PM 43.0283 -85.9656 109° East 429 494 41,000  Level Chicago Center
Wed 06:06:14 PM 42.9903 -85.8114 109° East 429 494 41,000  Level Chicago Center
Wed 06:07:16 PM 42.9483 -85.6422 109° East 435 501 41,000  Level Chicago Center
Wed 06:08:18 PM 42.9092 -85.4869 109° East 434 499 41,000  Level Chicago Center
Wed 06:09:20 PM 42.8697 -85.3325 109° East 434 499 41,000  Level Chicago Center
Wed 06:10:22 PM 42.8317 -85.1825 109° East 424 488 41,000  Level Chicago Center
Wed 06:11:26 PM 42.7967 -85.0433 109° East 399 459 41,000  Level Chicago Center
Wed 06:12:27 PM 42.7619 -84.9097 109° East 381 438 41,000  Level Chicago Center
Wed 06:13:29 PM 42.7175 -84.7392 109° East 394 453 41,000  Level Chicago Center
Wed 06:14:31 PM 42.6794 -84.5883 109° East 415 478 41,000  Level Chicago Center
Wed 06:15:10 PM 42.6486 -84.4819 111° Southeast 413 475 41,000  Level Cleveland Center
Wed 06:16:09 PM 42.6350 -84.3203 96° East 425 489 41,000  Level Cleveland Center
Wed 06:17:09 PM 42.6172 -84.1583 98° East 430 495 41,000  Level Cleveland Center
Wed 06:18:10 PM 42.6036 -83.9939 96° East 430 495 41,000  Level Cleveland Center
Wed 06:19:09 PM 42.5894 -83.8267 97° East 430 495 41,000  Level Cleveland Center
Wed 06:20:10 PM 42.5750 -83.6792 98° East 435 501 41,000  Level Cleveland Center
Wed 06:21:09 PM 42.5583 -83.5119 98° East 435 501 41,000  Level Cleveland Center
Wed 06:22:09 PM 42.5439 -83.3450 97° East 441 507 41,000  Level Cleveland Center
Wed 06:23:10 PM 42.5267 -83.1808 98° East 446 513 41,000  Level Cleveland Center
Wed 06:24:09 PM 42.5075 -83.0139 99° East 446 513 41,000  Level Cleveland Center
Wed 06:25:09 PM 42.4922 -82.8472 97° East 446 513 41,000  Level Cleveland Center
Wed 06:26:10 PM 42.4744 -82.6803 98° East 446 513 41,000  Level Cleveland Center
Wed 06:27:10 PM 42.4564 -82.5139 98° East 446 513 41,000  Level Cleveland Center
Wed 06:29:10 PM 42.4178 -82.1778 99° East 446 513 41,000  Level Cleveland Center
Wed 06:30:09 PM 42.3994 -81.9947 98° East 452 520 41,000  Level Cleveland Center
Wed 06:31:09 PM 42.3825 -81.8283 98° East 446 513 41,000  Level Cleveland Center
Wed 06:32:10 PM 42.3633 -81.6594 99° East 451 519 41,000  Level Cleveland Center
Wed 06:33:09 PM 42.3442 -81.4878 99° East 451 519 41,000  Level Cleveland Center
Wed 06:34:09 PM 42.3244 -81.3189 99° East 451 519 41,000  Level Cleveland Center
Wed 06:35:10 PM 42.3086 -81.1728 98° East 451 519 41,000  Level Cleveland Center
Wed 06:36:10 PM 42.2886 -81.0014 99° East 451 519 41,000  Level Cleveland Center
Wed 06:37:09 PM 42.2661 -80.8356 100° East 451 519 41,000  Level Cleveland Center
Wed 06:38:10 PM 42.2433 -80.6644 100° East 451 519 41,000  Level Cleveland Center
Wed 06:39:10 PM 42.2183 -80.4992 101° East 451 519 41,000  Level Cleveland Center
Wed 06:40:09 PM 42.1911 -80.3169 101° East 446 513 41,000  Level Cleveland Center
Wed 06:41:10 PM 42.1656 -80.1489 102° East 453 521 41,000  Level Cleveland Center
Wed 06:42:09 PM 42.1419 -79.9811 101° East 448 516 41,000  Level Cleveland Center
Wed 06:43:09 PM 42.1222 -79.8300 100° East 448 516 41,000  Level Cleveland Center
Wed 06:44:09 PM 42.0961 -79.6653 102° East 448 516 41,000  Level Cleveland Center
Wed 06:45:09 PM 42.0694 -79.4978 102° East 448 516 41,000  Level Cleveland Center
Wed 06:46:09 PM 42.0428 -79.3333 102° East 448 516 41,000  Level Cleveland Center
Wed 06:47:09 PM 42.0181 -79.1661 101° East 448 516 41,000  Level Cleveland Center
Wed 06:48:10 PM 41.9886 -78.9992 103° East 448 516 41,000  Level Cleveland Center
Wed 06:49:09 PM 41.9633 -78.8322 101° East 448 516 41,000  Level Cleveland Center
Wed 06:50:09 PM 41.9378 -78.6656 102° East 448 516 41,000 -500 Level Cleveland Center
Wed 06:51:09 PM 41.9097 -78.4961 102° East 448 516 40,000 -1,500 Descending Cleveland Center
Wed 06:52:09 PM 41.8817 -78.3353 103° East 448 516 38,000 -1,508 Descending Cleveland Center
Wed 06:54:28 PM 41.8264 -78.0000 102° East 407 468 35,000 -905 Descending New York Center
Wed 06:55:28 PM 41.7997 -77.8522 104° East 399 459 35,000  Level New York Center
Wed 06:56:29 PM 41.7719 -77.6908 103° East 415 478 35,000  Level New York Center
Wed 06:57:30 PM 41.7436 -77.5292 103° East 433 498 35,000 -198 Level New York Center
Wed 06:58:30 PM 41.7172 -77.3681 102° East 438 504 34,600 -1,190 Descending New York Center
Wed 06:59:31 PM 41.6903 -77.2156 103° East 438 504 32,600 -2,237 Descending New York Center
Wed 07:00:28 PM 41.6494 -77.0450 108° East 433 498 30,200 -2,237 Descending New York Center
Wed 07:01:29 PM 41.6056 -76.8883 110° East 439 505 28,200 -1,983 Descending New York Center
Wed 07:02:29 PM 41.5633 -76.7319 110° East 445 512 26,200 -1,869 Descending New York Center
Wed 07:03:31 PM 41.5264 -76.5983 110° East 439 505 24,400 -1,109 Descending New York Center
Wed 07:04:28 PM 41.4875 -76.4508 109° East 429 494 24,000 -203 Descending New York Center
Wed 07:05:29 PM 41.4431 -76.2894 110° East 424 488 24,000  Level New York Center
Wed 07:06:31 PM 41.4019 -76.1450 111° Southeast 424 488 24,000 -600 Level New York Center
Wed 07:07:29 PM 41.3606 -76.0006 111° Southeast 419 482 22,800 -1,744 Descending New York Center
Wed 07:08:28 PM 41.3206 -75.8622 111° Southeast 409 471 20,600 -2,150 Descending New York Center
Wed 07:09:29 PM 41.2828 -75.7214 110° East 401 461 18,500 -2,132 Descending New York Center
Wed 07:10:29 PM 41.2403 -75.5911 113° Southeast 394 453 16,300 -2,083 Descending New York Center
Wed 07:11:30 PM 41.2053 -75.4811 113° Southeast 362 417 14,300 -1,967 Descending New York Center
Wed 07:12:31 PM 41.1642 -75.3597 114° Southeast 344 396 12,300 -1,831 Descending New York Center
Wed 07:13:28 PM 41.1303 -75.2639 115° Southeast 304 350 10,700 -1,627 Descending New York Center
Wed 07:14:29 PM 41.0967 -75.1625 114° Southeast 297 342 9,100 -1,525 Descending New York Center
Wed 07:15:30 PM 41.0683 -75.0781 114° Southeast 287 330 7,600 -1,513 Descending New York Center
Wed 07:16:28 PM 41.0467 -74.9858 107° East 282 325 6,100 -1,169 Descending New York Center
Wed 07:17:28 PM 41.0506 -74.8789 87° East 264 304 5,300 -1,033 Descending New York Center
Wed 07:18:30 PM 41.0517 -74.7828 89° East 264 304 4,000 -639 Descending New York Center
Wed 07:19:30 PM 41.0550 -74.6839 87° East 264 304 4,000  Level New York Center
Wed 07:20:28 PM 41.0583 -74.5878 87° East 264 304 4,000 -202 Level New York Center
Wed 07:21:29 PM 41.0611 -74.4969 88° East 251 289 3,600 -541 Descending New York Center
Wed 07:22:30 PM 41.0636 -74.4200 88° East 220 253 2,900 -344 Descending New York Center
Wed 07:23:31 PM 41.0681 -74.3378 86° East 215 247 2,900 79 Level New York Center
Wed 07:23:46 PM 41.0667 -74.3167 95° East 217 250 3,000 74 Climbing New York TRACON
Wed 07:24:52 PM 41.0667 -74.2333 90° East 226 260 3,000  Level New York TRACON
Wed 07:25:52 PM 41.0500 -74.1667 108° East 211 243 3,000 -316 Level New York TRACON
Wed 07:26:46 PM 41.0167 -74.1167 131° Southeast 185 213 2,400 -700 Descending New York TRACON
Wed 07:27:52 PM 40.9667 -74.0833 153° Southeast 180 207 1,600 -571 Descending New York TRACON
Wed 07:28:52 PM 40.9167 -74.0667 166° South 172 198 1,200 -474 Descending New York TRACON
Wed 07:29:46 PM 40.8833 -74.0500 159° South 119 137 700 -556 Descending New York TRACON
Wed 07:31:00 PM 40.8500 -74.0500 150° Southeast  Level FlightAware Approximate
Wed 07:38:00 PM 40.8501 -74.0608 150° Southeast  Level Estimated

Login

Don't have an account? Register now (free) for customized features, flight alerts, and more!